sensor_id;sensor_type;location;lat;lon;timestamp;pressure;altitude;pressure_sealevel;temperature;humidity
27805;BME280;15183;51.350;11.102;2023-08-20T00:00:53;100447.25;;;27.95;56.84
27805;BME280;15183;51.350;11.102;2023-08-20T00:03:19;100440.41;;;27.88;57.20
27805;BME280;15183;51.350;11.102;2023-08-20T00:05:46;100445.38;;;27.86;57.21
27805;BME280;15183;51.350;11.102;2023-08-20T00:08:12;100444.91;;;27.84;56.85
27805;BME280;15183;51.350;11.102;2023-08-20T00:10:40;100437.06;;;27.83;57.10
27805;BME280;15183;51.350;11.102;2023-08-20T00:13:06;100436.94;;;27.79;57.01
27805;BME280;15183;51.350;11.102;2023-08-20T00:15:33;100440.28;;;27.85;57.21
27805;BME280;15183;51.350;11.102;2023-08-20T00:18:01;100449.06;;;27.91;57.39
27805;BME280;15183;51.350;11.102;2023-08-20T00:20:30;100456.91;;;27.92;56.96
27805;BME280;15183;51.350;11.102;2023-08-20T00:22:57;100452.91;;;27.90;57.40
27805;BME280;15183;51.350;11.102;2023-08-20T00:25:25;100458.03;;;27.91;57.04
27805;BME280;15183;51.350;11.102;2023-08-20T00:27:53;100464.94;;;27.88;57.56
27805;BME280;15183;51.350;11.102;2023-08-20T00:30:19;100460.44;;;27.84;57.11
27805;BME280;15183;51.350;11.102;2023-08-20T00:32:45;100452.81;;;27.77;57.75
27805;BME280;15183;51.350;11.102;2023-08-20T00:35:14;100456.66;;;27.76;58.08
27805;BME280;15183;51.350;11.102;2023-08-20T00:37:41;100457.16;;;27.69;58.01
27805;BME280;15183;51.350;11.102;2023-08-20T00:40:08;100454.91;;;27.71;58.13
27805;BME280;15183;51.350;11.102;2023-08-20T00:42:36;100465.16;;;27.74;57.41
27805;BME280;15183;51.350;11.102;2023-08-20T00:45:04;100465.31;;;27.78;58.09
27805;BME280;15183;51.350;11.102;2023-08-20T00:47:31;100459.38;;;27.76;57.45
27805;BME280;15183;51.350;11.102;2023-08-20T00:49:58;100454.25;;;27.74;57.58
27805;BME280;15183;51.350;11.102;2023-08-20T00:52:25;100468.16;;;27.82;58.22
27805;BME280;15183;51.350;11.102;2023-08-20T00:54:53;100455.84;;;27.76;57.65
27805;BME280;15183;51.350;11.102;2023-08-20T00:57:20;100467.56;;;27.76;57.52
27805;BME280;15183;51.350;11.102;2023-08-20T00:59:48;100460.03;;;27.73;57.93
27805;BME280;15183;51.350;11.102;2023-08-20T01:02:17;100446.44;;;27.64;58.40
27805;BME280;15183;51.350;11.102;2023-08-20T01:04:45;100464.84;;;27.67;58.12
27805;BME280;15183;51.350;11.102;2023-08-20T01:13:02;100447.28;;;27.47;58.64
27805;BME280;15183;51.350;11.102;2023-08-20T01:15:31;100458.03;;;27.52;58.34
27805;BME280;15183;51.350;11.102;2023-08-20T01:17:57;100464.75;;;27.46;58.28
27805;BME280;15183;51.350;11.102;2023-08-20T01:20:30;100469.06;;;27.47;58.64
27805;BME280;15183;51.350;11.102;2023-08-20T01:23:42;100468.13;;;27.43;58.37
27805;BME280;15183;51.350;11.102;2023-08-20T01:26:37;100458.38;;;27.33;58.33
27805;BME280;15183;51.350;11.102;2023-08-20T01:29:07;100447.69;;;27.19;58.48
27805;BME280;15183;51.350;11.102;2023-08-20T01:31:34;100465.09;;;27.27;58.39
27805;BME280;15183;51.350;11.102;2023-08-20T01:34:01;100448.84;;;27.09;58.99
27805;BME280;15183;51.350;11.102;2023-08-20T01:36:29;100451.69;;;27.13;58.71
27805;BME280;15183;51.350;11.102;2023-08-20T01:38:56;100469.44;;;27.19;58.81
27805;BME280;15183;51.350;11.102;2023-08-20T01:41:24;100464.00;;;27.19;58.51
27805;BME280;15183;51.350;11.102;2023-08-20T01:43:50;100455.88;;;27.10;58.99
27805;BME280;15183;51.350;11.102;2023-08-20T01:46:17;100448.19;;;26.95;59.21
27805;BME280;15183;51.350;11.102;2023-08-20T01:48:43;100468.53;;;26.97;58.76
27805;BME280;15183;51.350;11.102;2023-08-20T01:51:11;100469.94;;;26.95;59.59
27805;BME280;15183;51.350;11.102;2023-08-20T01:53:37;100469.81;;;26.91;59.32
27805;BME280;15183;51.350;11.102;2023-08-20T01:56:04;100466.94;;;26.96;59.03
27805;BME280;15183;51.350;11.102;2023-08-20T01:58:31;100474.09;;;27.01;58.96
27805;BME280;15183;51.350;11.102;2023-08-20T02:00:58;100476.34;;;26.99;59.15
27805;BME280;15183;51.350;11.102;2023-08-20T02:03:26;100483.06;;;27.01;58.90
27805;BME280;15183;51.350;11.102;2023-08-20T02:05:53;100479.22;;;27.11;59.29
27805;BME280;15183;51.350;11.102;2023-08-20T02:08:20;100479.06;;;27.16;58.97
27805;BME280;15183;51.350;11.102;2023-08-20T02:10:47;100485.13;;;27.22;59.11
27805;BME280;15183;51.350;11.102;2023-08-20T02:13:13;100478.72;;;27.27;59.08
27805;BME280;15183;51.350;11.102;2023-08-20T02:15:40;100488.94;;;27.30;59.21
27805;BME280;15183;51.350;11.102;2023-08-20T02:18:08;100495.81;;;27.36;58.87
27805;BME280;15183;51.350;11.102;2023-08-20T02:20:34;100493.44;;;27.35;59.05
27805;BME280;15183;51.350;11.102;2023-08-20T02:23:01;100503.84;;;27.33;58.41
27805;BME280;15183;51.350;11.102;2023-08-20T02:25:27;100490.56;;;27.22;58.67
27805;BME280;15183;51.350;11.102;2023-08-20T02:27:54;100490.25;;;27.06;59.44
27805;BME280;15183;51.350;11.102;2023-08-20T02:30:22;100500.03;;;26.98;59.15
27805;BME280;15183;51.350;11.102;2023-08-20T02:32:49;100495.41;;;26.90;59.29
27805;BME280;15183;51.350;11.102;2023-08-20T02:35:15;100491.53;;;26.82;59.47
27805;BME280;15183;51.350;11.102;2023-08-20T02:37:43;100500.63;;;26.78;59.87
27805;BME280;15183;51.350;11.102;2023-08-20T02:40:11;100506.88;;;26.69;60.14
27805;BME280;15183;51.350;11.102;2023-08-20T02:42:39;100487.03;;;26.60;60.03
27805;BME280;15183;51.350;11.102;2023-08-20T02:45:06;100501.25;;;26.66;60.02
27805;BME280;15183;51.350;11.102;2023-08-20T02:47:33;100491.19;;;26.57;59.97
27805;BME280;15183;51.350;11.102;2023-08-20T02:49:59;100497.44;;;26.58;60.62
27805;BME280;15183;51.350;11.102;2023-08-20T02:52:26;100499.50;;;26.52;60.94
27805;BME280;15183;51.350;11.102;2023-08-20T02:54:56;100494.53;;;26.46;60.80
27805;BME280;15183;51.350;11.102;2023-08-20T02:57:24;100488.94;;;26.42;60.76
27805;BME280;15183;51.350;11.102;2023-08-20T02:59:51;100494.53;;;26.46;60.65
27805;BME280;15183;51.350;11.102;2023-08-20T03:02:18;100496.44;;;26.45;60.63
27805;BME280;15183;51.350;11.102;2023-08-20T03:04:45;100495.63;;;26.44;60.87
27805;BME280;15183;51.350;11.102;2023-08-20T03:07:12;100489.56;;;26.39;60.98
27805;BME280;15183;51.350;11.102;2023-08-20T03:09:38;100496.75;;;26.43;60.78
27805;BME280;15183;51.350;11.102;2023-08-20T03:12:05;100501.72;;;26.41;61.09
27805;BME280;15183;51.350;11.102;2023-08-20T03:14:33;100512.56;;;26.41;60.94
27805;BME280;15183;51.350;11.102;2023-08-20T03:16:59;100511.63;;;26.46;60.87
27805;BME280;15183;51.350;11.102;2023-08-20T03:19:32;100518.81;;;26.51;60.88
27805;BME280;15183;51.350;11.102;2023-08-20T03:22:00;100509.59;;;26.52;60.84
27805;BME280;15183;51.350;11.102;2023-08-20T03:24:27;100504.44;;;26.50;61.05
27805;BME280;15183;51.350;11.102;2023-08-20T03:26:53;100514.06;;;26.56;60.91
27805;BME280;15183;51.350;11.102;2023-08-20T03:29:20;100503.50;;;26.55;60.86
27805;BME280;15183;51.350;11.102;2023-08-20T03:31:46;100498.06;;;26.55;60.59
27805;BME280;15183;51.350;11.102;2023-08-20T03:34:13;100502.06;;;26.57;61.00
27805;BME280;15183;51.350;11.102;2023-08-20T03:36:40;100491.16;;;26.49;61.21
27805;BME280;15183;51.350;11.102;2023-08-20T03:39:06;100510.66;;;26.51;61.13
27805;BME280;15183;51.350;11.102;2023-08-20T03:41:32;100503.78;;;26.44;60.59
27805;BME280;15183;51.350;11.102;2023-08-20T03:43:59;100498.84;;;26.38;60.84
27805;BME280;15183;51.350;11.102;2023-08-20T03:46:25;100509.84;;;26.33;61.00
27805;BME280;15183;51.350;11.102;2023-08-20T03:48:52;100507.59;;;26.26;61.25
27805;BME280;15183;51.350;11.102;2023-08-20T03:51:19;100513.81;;;26.18;61.36
27805;BME280;15183;51.350;11.102;2023-08-20T03:53:45;100516.47;;;26.09;61.94
27805;BME280;15183;51.350;11.102;2023-08-20T03:56:15;100524.56;;;26.00;62.03
27805;BME280;15183;51.350;11.102;2023-08-20T03:58:42;100520.88;;;25.96;62.23
27805;BME280;15183;51.350;11.102;2023-08-20T04:01:08;100518.94;;;25.88;62.49
27805;BME280;15183;51.350;11.102;2023-08-20T04:03:36;100504.63;;;25.73;62.63
27805;BME280;15183;51.350;11.102;2023-08-20T04:06:03;100519.03;;;25.74;62.95
27805;BME280;15183;51.350;11.102;2023-08-20T04:08:30;100523.78;;;25.68;62.62
27805;BME280;15183;51.350;11.102;2023-08-20T04:10:57;100505.84;;;25.58;62.64
27805;BME280;15183;51.350;11.102;2023-08-20T04:13:25;100524.41;;;25.65;63.05
27805;BME280;15183;51.350;11.102;2023-08-20T04:15:51;100510.34;;;25.63;62.83
27805;BME280;15183;51.350;11.102;2023-08-20T04:18:19;100508.59;;;25.67;62.74
27805;BME280;15183;51.350;11.102;2023-08-20T04:20:45;100501.91;;;25.73;62.54
27805;BME280;15183;51.350;11.102;2023-08-20T04:23:12;100519.56;;;25.84;62.55
27805;BME280;15183;51.350;11.102;2023-08-20T04:25:40;100529.03;;;25.96;62.30
27805;BME280;15183;51.350;11.102;2023-08-20T04:28:07;100522.34;;;26.02;62.55
27805;BME280;15183;51.350;11.102;2023-08-20T04:30:35;100522.69;;;26.09;62.36
27805;BME280;15183;51.350;11.102;2023-08-20T04:33:03;100521.72;;;26.05;61.87
27805;BME280;15183;51.350;11.102;2023-08-20T04:35:29;100532.56;;;26.05;62.22
27805;BME280;15183;51.350;11.102;2023-08-20T04:37:55;100529.38;;;26.03;62.31
27805;BME280;15183;51.350;11.102;2023-08-20T04:40:23;100535.91;;;26.02;62.17
27805;BME280;15183;51.350;11.102;2023-08-20T04:42:52;100515.41;;;25.87;62.82
27805;BME280;15183;51.350;11.102;2023-08-20T04:45:19;100533.81;;;25.99;62.32
27805;BME280;15183;51.350;11.102;2023-08-20T04:47:47;100528.59;;;26.03;62.29
27805;BME280;15183;51.350;11.102;2023-08-20T04:50:13;100529.06;;;26.13;62.10
27805;BME280;15183;51.350;11.102;2023-08-20T04:52:40;100537.94;;;26.19;61.99
27805;BME280;15183;51.350;11.102;2023-08-20T04:55:08;100538.44;;;26.30;61.81
27805;BME280;15183;51.350;11.102;2023-08-20T04:57:35;100539.41;;;26.34;62.13
27805;BME280;15183;51.350;11.102;2023-08-20T05:00:01;100552.38;;;26.37;62.36
27805;BME280;15183;51.350;11.102;2023-08-20T05:02:28;100555.72;;;26.34;62.39
27805;BME280;15183;51.350;11.102;2023-08-20T05:04:55;100555.22;;;26.32;61.98
27805;BME280;15183;51.350;11.102;2023-08-20T05:07:22;100560.19;;;26.30;61.69
27805;BME280;15183;51.350;11.102;2023-08-20T05:09:49;100564.81;;;26.29;61.75
27805;BME280;15183;51.350;11.102;2023-08-20T05:12:17;100569.00;;;26.36;62.00
27805;BME280;15183;51.350;11.102;2023-08-20T05:14:43;100566.16;;;26.50;62.51
27805;BME280;15183;51.350;11.102;2023-08-20T05:17:10;100570.66;;;26.63;62.53
27805;BME280;15183;51.350;11.102;2023-08-20T05:19:37;100555.47;;;26.62;62.16
27805;BME280;15183;51.350;11.102;2023-08-20T05:22:04;100561.09;;;26.75;62.33
27805;BME280;15183;51.350;11.102;2023-08-20T05:24:30;100572.34;;;26.91;61.93
27805;BME280;15183;51.350;11.102;2023-08-20T05:27:12;100581.50;;;27.12;61.49
27805;BME280;15183;51.350;11.102;2023-08-20T05:29:42;100583.06;;;27.31;61.54
27805;BME280;15183;51.350;11.102;2023-08-20T05:32:09;100594.91;;;27.44;61.25
27805;BME280;15183;51.350;11.102;2023-08-20T05:34:37;100588.81;;;27.47;60.62
27805;BME280;15183;51.350;11.102;2023-08-20T05:37:03;100586.59;;;27.49;60.72
27805;BME280;15183;51.350;11.102;2023-08-20T05:39:41;100605.16;;;27.65;60.66
27805;BME280;15183;51.350;11.102;2023-08-20T05:42:09;100598.94;;;27.64;60.54
27805;BME280;15183;51.350;11.102;2023-08-20T05:44:36;100603.06;;;27.62;61.03
27805;BME280;15183;51.350;11.102;2023-08-20T05:47:03;100604.38;;;27.64;60.94
27805;BME280;15183;51.350;11.102;2023-08-20T05:49:32;100614.94;;;27.66;60.64
27805;BME280;15183;51.350;11.102;2023-08-20T05:51:58;100622.31;;;27.65;60.54
27805;BME280;15183;51.350;11.102;2023-08-20T05:54:25;100617.69;;;27.66;60.97
27805;BME280;15183;51.350;11.102;2023-08-20T05:56:51;100616.22;;;27.59;60.35
27805;BME280;15183;51.350;11.102;2023-08-20T05:59:19;100622.47;;;27.69;60.49
27805;BME280;15183;51.350;11.102;2023-08-20T06:01:45;100608.50;;;27.79;60.58
27805;BME280;15183;51.350;11.102;2023-08-20T06:04:12;100627.97;;;28.08;60.72
27805;BME280;15183;51.350;11.102;2023-08-20T06:06:38;100627.91;;;28.34;60.56
27805;BME280;15183;51.350;11.102;2023-08-20T06:09:06;100602.38;;;28.48;60.84
27805;BME280;15183;51.350;11.102;2023-08-20T06:11:32;100619.16;;;28.88;60.05
27805;BME280;15183;51.350;11.102;2023-08-20T06:13:59;100634.50;;;29.23;59.74
27805;BME280;15183;51.350;11.102;2023-08-20T06:16:25;100638.41;;;29.56;59.91
27805;BME280;15183;51.350;11.102;2023-08-20T06:18:52;100636.34;;;29.86;59.00
27805;BME280;15183;51.350;11.102;2023-08-20T06:21:20;100630.84;;;30.08;58.57
27805;BME280;15183;51.350;11.102;2023-08-20T06:23:47;100635.78;;;30.39;58.53
27805;BME280;15183;51.350;11.102;2023-08-20T06:26:14;100634.78;;;30.69;58.04
27805;BME280;15183;51.350;11.102;2023-08-20T06:28:40;100638.28;;;30.94;57.22
27805;BME280;15183;51.350;11.102;2023-08-20T06:31:08;100640.03;;;31.27;56.53
27805;BME280;15183;51.350;11.102;2023-08-20T06:33:35;100647.13;;;31.57;55.61
27805;BME280;15183;51.350;11.102;2023-08-20T06:36:01;100632.78;;;31.76;55.03
27805;BME280;15183;51.350;11.102;2023-08-20T06:38:29;100638.84;;;31.98;54.51
27805;BME280;15183;51.350;11.102;2023-08-20T06:40:56;100642.28;;;32.27;53.90
27805;BME280;15183;51.350;11.102;2023-08-20T06:43:23;100640.28;;;32.40;52.98
27805;BME280;15183;51.350;11.102;2023-08-20T06:45:49;100658.03;;;32.62;52.40
27805;BME280;15183;51.350;11.102;2023-08-20T06:48:16;100655.75;;;32.64;51.48
27805;BME280;15183;51.350;11.102;2023-08-20T06:50:45;100665.56;;;32.65;51.11
27805;BME280;15183;51.350;11.102;2023-08-20T06:53:12;100665.31;;;32.54;50.58
27805;BME280;15183;51.350;11.102;2023-08-20T06:55:38;100660.97;;;32.37;50.35
27805;BME280;15183;51.350;11.102;2023-08-20T06:58:05;100662.00;;;32.16;50.10
27805;BME280;15183;51.350;11.102;2023-08-20T07:00:31;100663.84;;;31.96;50.41
27805;BME280;15183;51.350;11.102;2023-08-20T07:02:58;100673.72;;;31.85;50.78
27805;BME280;15183;51.350;11.102;2023-08-20T07:05:24;100676.84;;;31.71;50.12
27805;BME280;15183;51.350;11.102;2023-08-20T07:07:53;100674.03;;;31.67;50.29
27805;BME280;15183;51.350;11.102;2023-08-20T07:10:20;100678.16;;;31.61;50.31
27805;BME280;15183;51.350;11.102;2023-08-20T07:12:46;100664.88;;;31.47;50.28
27805;BME280;15183;51.350;11.102;2023-08-20T07:15:13;100685.66;;;31.36;50.87
27805;BME280;15183;51.350;11.102;2023-08-20T07:17:40;100676.66;;;31.23;50.98
27805;BME280;15183;51.350;11.102;2023-08-20T07:20:07;100687.53;;;31.19;50.75
27805;BME280;15183;51.350;11.102;2023-08-20T07:22:35;100687.75;;;31.14;50.67
27805;BME280;15183;51.350;11.102;2023-08-20T07:25:04;100702.13;;;31.11;50.77
27805;BME280;15183;51.350;11.102;2023-08-20T07:27:30;100701.69;;;31.09;51.17
27805;BME280;15183;51.350;11.102;2023-08-20T07:29:57;100709.19;;;31.12;51.20
27805;BME280;15183;51.350;11.102;2023-08-20T07:32:23;100708.97;;;31.04;50.49
27805;BME280;15183;51.350;11.102;2023-08-20T07:34:50;100712.06;;;31.03;50.45
27805;BME280;15183;51.350;11.102;2023-08-20T07:37:16;100697.25;;;30.92;51.23
27805;BME280;15183;51.350;11.102;2023-08-20T07:39:43;100699.28;;;30.95;50.88
27805;BME280;15183;51.350;11.102;2023-08-20T07:42:09;100688.91;;;30.88;51.51
27805;BME280;15183;51.350;11.102;2023-08-20T07:44:37;100698.03;;;30.92;50.95
27805;BME280;15183;51.350;11.102;2023-08-20T07:47:03;100692.22;;;30.94;50.83
27805;BME280;15183;51.350;11.102;2023-08-20T07:49:30;100703.72;;;30.99;51.41
27805;BME280;15183;51.350;11.102;2023-08-20T07:51:56;100697.34;;;30.95;50.70
27805;BME280;15183;51.350;11.102;2023-08-20T07:54:22;100698.38;;;30.90;51.21
27805;BME280;15183;51.350;11.102;2023-08-20T07:56:49;100691.44;;;30.81;50.89
27805;BME280;15183;51.350;11.102;2023-08-20T07:59:15;100693.34;;;30.80;51.35
27805;BME280;15183;51.350;11.102;2023-08-20T08:01:43;100681.41;;;30.72;50.56
27805;BME280;15183;51.350;11.102;2023-08-20T08:04:11;100681.84;;;30.62;51.16
27805;BME280;15183;51.350;11.102;2023-08-20T08:06:37;100688.78;;;30.59;51.26
27805;BME280;15183;51.350;11.102;2023-08-20T08:09:30;100704.38;;;30.59;51.10
27805;BME280;15183;51.350;11.102;2023-08-20T08:11:57;100695.28;;;30.55;51.14
27805;BME280;15183;51.350;11.102;2023-08-20T08:14:25;100687.53;;;30.57;51.07
27805;BME280;15183;51.350;11.102;2023-08-20T08:16:52;100713.66;;;30.79;51.25
27805;BME280;15183;51.350;11.102;2023-08-20T08:19:18;100701.47;;;30.89;50.42
27805;BME280;15183;51.350;11.102;2023-08-20T08:21:46;100697.78;;;30.97;50.65
27805;BME280;15183;51.350;11.102;2023-08-20T08:24:14;100690.38;;;31.10;50.44
27805;BME280;15183;51.350;11.102;2023-08-20T08:26:41;100695.84;;;31.23;50.57
27805;BME280;15183;51.350;11.102;2023-08-20T08:29:08;100699.00;;;31.37;49.69
27805;BME280;15183;51.350;11.102;2023-08-20T08:31:36;100697.75;;;31.47;49.65
27805;BME280;15183;51.350;11.102;2023-08-20T08:34:02;100689.03;;;31.57;50.15
27805;BME280;15183;51.350;11.102;2023-08-20T08:36:31;100698.22;;;31.78;49.70
27805;BME280;15183;51.350;11.102;2023-08-20T08:38:58;100701.44;;;31.96;49.46
27805;BME280;15183;51.350;11.102;2023-08-20T08:41:25;100687.91;;;32.03;48.97
27805;BME280;15183;51.350;11.102;2023-08-20T08:43:53;100687.66;;;32.08;48.15
27805;BME280;15183;51.350;11.102;2023-08-20T08:46:21;100695.97;;;32.12;48.17
27805;BME280;15183;51.350;11.102;2023-08-20T08:48:49;100690.50;;;32.28;47.89
27805;BME280;15183;51.350;11.102;2023-08-20T08:51:16;100684.97;;;32.40;47.89
27805;BME280;15183;51.350;11.102;2023-08-20T08:53:43;100687.44;;;32.45;47.95
27805;BME280;15183;51.350;11.102;2023-08-20T08:56:11;100679.91;;;32.42;47.43
27805;BME280;15183;51.350;11.102;2023-08-20T08:58:37;100678.16;;;32.34;47.76
27805;BME280;15183;51.350;11.102;2023-08-20T09:01:04;100684.06;;;32.36;47.81
27805;BME280;15183;51.350;11.102;2023-08-20T09:03:30;100685.56;;;32.50;47.48
27805;BME280;15183;51.350;11.102;2023-08-20T09:06:00;100679.63;;;32.63;47.53
27805;BME280;15183;51.350;11.102;2023-08-20T09:08:30;100666.88;;;32.71;47.10
27805;BME280;15183;51.350;11.102;2023-08-20T09:10:59;100675.19;;;32.75;47.26
27805;BME280;15183;51.350;11.102;2023-08-20T09:13:46;100669.63;;;32.71;46.87
27805;BME280;15183;51.350;11.102;2023-08-20T09:16:12;100686.97;;;32.75;47.42
27805;BME280;15183;51.350;11.102;2023-08-20T09:18:45;100673.25;;;32.75;47.04
27805;BME280;15183;51.350;11.102;2023-08-20T09:21:13;100684.47;;;32.86;47.03
27805;BME280;15183;51.350;11.102;2023-08-20T09:23:40;100675.97;;;32.91;46.46
27805;BME280;15183;51.350;11.102;2023-08-20T09:26:07;100667.13;;;32.98;46.06
27805;BME280;15183;51.350;11.102;2023-08-20T09:28:46;100679.03;;;33.06;46.25
27805;BME280;15183;51.350;11.102;2023-08-20T09:31:15;100680.13;;;33.21;45.93
27805;BME280;15183;51.350;11.102;2023-08-20T09:34:01;100670.78;;;33.42;46.48
27805;BME280;15183;51.350;11.102;2023-08-20T09:36:33;100682.03;;;33.56;45.57
27805;BME280;15183;51.350;11.102;2023-08-20T09:39:03;100684.94;;;33.63;45.36
27805;BME280;15183;51.350;11.102;2023-08-20T09:41:30;100688.69;;;33.75;45.37
27805;BME280;15183;51.350;11.102;2023-08-20T09:43:59;100686.44;;;33.81;44.87
27805;BME280;15183;51.350;11.102;2023-08-20T09:46:29;100690.84;;;33.85;44.98
27805;BME280;15183;51.350;11.102;2023-08-20T09:48:58;100685.34;;;33.85;44.85
27805;BME280;15183;51.350;11.102;2023-08-20T09:51:28;100702.56;;;33.82;44.11
27805;BME280;15183;51.350;11.102;2023-08-20T09:54:59;100686.38;;;33.57;44.75
27805;BME280;15183;51.350;11.102;2023-08-20T10:00:00;100692.19;;;33.52;44.51
27805;BME280;15183;51.350;11.102;2023-08-20T10:02:28;100693.34;;;33.51;44.74
27805;BME280;15183;51.350;11.102;2023-08-20T10:04:57;100702.59;;;33.43;45.00
27805;BME280;15183;51.350;11.102;2023-08-20T10:07:29;100686.00;;;33.19;44.75
27805;BME280;15183;51.350;11.102;2023-08-20T10:10:02;100689.22;;;33.05;45.31
27805;BME280;15183;51.350;11.102;2023-08-20T10:12:30;100695.25;;;32.95;45.61
27805;BME280;15183;51.350;11.102;2023-08-20T10:14:59;100695.44;;;32.86;45.22
27805;BME280;15183;51.350;11.102;2023-08-20T10:17:29;100699.69;;;32.84;45.62
27805;BME280;15183;51.350;11.102;2023-08-20T10:19:58;100696.50;;;32.82;45.68
27805;BME280;15183;51.350;11.102;2023-08-20T10:22:39;100687.84;;;32.80;45.90
27805;BME280;15183;51.350;11.102;2023-08-20T10:25:24;100684.22;;;32.75;45.45
27805;BME280;15183;51.350;11.102;2023-08-20T10:27:52;100685.72;;;32.73;46.08
27805;BME280;15183;51.350;11.102;2023-08-20T10:30:23;100686.53;;;32.73;46.16
27805;BME280;15183;51.350;11.102;2023-08-20T10:32:58;100687.84;;;32.80;45.96
27805;BME280;15183;51.350;11.102;2023-08-20T10:38:14;100702.72;;;32.95;45.24
27805;BME280;15183;51.350;11.102;2023-08-20T10:40:57;100680.91;;;32.86;45.03
27805;BME280;15183;51.350;11.102;2023-08-20T10:46:20;100698.06;;;33.15;45.37
27805;BME280;15183;51.350;11.102;2023-08-20T10:48:49;100694.69;;;33.22;44.77
27805;BME280;15183;51.350;11.102;2023-08-20T10:51:34;100692.00;;;33.25;45.09
27805;BME280;15183;51.350;11.102;2023-08-20T10:56:59;100688.69;;;33.36;45.18
27805;BME280;15183;51.350;11.102;2023-08-20T10:59:28;100678.44;;;33.52;44.48
27805;BME280;15183;51.350;11.102;2023-08-20T11:01:58;100686.72;;;33.75;44.86
27805;BME280;15183;51.350;11.102;2023-08-20T11:04:30;100682.53;;;34.01;44.04
27805;BME280;15183;51.350;11.102;2023-08-20T11:07:01;100682.84;;;34.19;43.79
27805;BME280;15183;51.350;11.102;2023-08-20T11:09:30;100670.72;;;34.24;44.21
27805;BME280;15183;51.350;11.102;2023-08-20T11:11:58;100670.97;;;34.39;43.33
27805;BME280;15183;51.350;11.102;2023-08-20T11:14:24;100677.88;;;34.52;43.83
27805;BME280;15183;51.350;11.102;2023-08-20T11:16:53;100683.59;;;34.67;43.41
27805;BME280;15183;51.350;11.102;2023-08-20T11:19:23;100673.47;;;34.74;43.03
27805;BME280;15183;51.350;11.102;2023-08-20T11:21:50;100678.19;;;35.01;42.67
27805;BME280;15183;51.350;11.102;2023-08-20T11:24:17;100682.00;;;35.23;42.82
27805;BME280;15183;51.350;11.102;2023-08-20T11:26:46;100669.63;;;35.40;41.85
27805;BME280;15183;51.350;11.102;2023-08-20T11:29:15;100680.03;;;35.54;41.53
27805;BME280;15183;51.350;11.102;2023-08-20T11:31:46;100657.09;;;35.46;41.66
27805;BME280;15183;51.350;11.102;2023-08-20T11:34:13;100662.31;;;35.52;41.96
27805;BME280;15183;51.350;11.102;2023-08-20T11:36:40;100666.53;;;35.45;42.22
27805;BME280;15183;51.350;11.102;2023-08-20T11:39:08;100666.16;;;35.47;41.59
27805;BME280;15183;51.350;11.102;2023-08-20T11:41:40;100658.41;;;35.56;42.02
27805;BME280;15183;51.350;11.102;2023-08-20T11:44:09;100652.56;;;35.61;41.86
27805;BME280;15183;51.350;11.102;2023-08-20T11:46:43;100655.88;;;35.78;41.26
27805;BME280;15183;51.350;11.102;2023-08-20T11:49:11;100650.84;;;35.87;41.23
27805;BME280;15183;51.350;11.102;2023-08-20T11:51:51;100655.75;;;36.05;40.95
27805;BME280;15183;51.350;11.102;2023-08-20T11:54:20;100656.22;;;36.14;40.67
27805;BME280;15183;51.350;11.102;2023-08-20T11:56:51;100658.63;;;36.19;41.08
27805;BME280;15183;51.350;11.102;2023-08-20T11:59:20;100655.91;;;36.27;40.43
27805;BME280;15183;51.350;11.102;2023-08-20T12:01:51;100650.81;;;36.29;40.30
27805;BME280;15183;51.350;11.102;2023-08-20T12:04:23;100653.16;;;36.23;41.12
27805;BME280;15183;51.350;11.102;2023-08-20T12:07:25;100632.63;;;36.20;41.09
27805;BME280;15183;51.350;11.102;2023-08-20T12:09:50;100645.34;;;36.36;40.91
27805;BME280;15183;51.350;11.102;2023-08-20T12:12:19;100644.59;;;36.43;40.56
27805;BME280;15183;51.350;11.102;2023-08-20T12:14:47;100648.63;;;36.53;40.45
27805;BME280;15183;51.350;11.102;2023-08-20T12:17:18;100635.59;;;36.49;40.57
27805;BME280;15183;51.350;11.102;2023-08-20T12:19:46;100632.84;;;36.53;40.18
27805;BME280;15183;51.350;11.102;2023-08-20T12:22:12;100643.19;;;36.67;40.15
27805;BME280;15183;51.350;11.102;2023-08-20T12:24:39;100648.38;;;36.76;39.98
27805;BME280;15183;51.350;11.102;2023-08-20T12:27:06;100645.28;;;36.85;40.16
27805;BME280;15183;51.350;11.102;2023-08-20T12:29:34;100651.63;;;36.96;39.33
27805;BME280;15183;51.350;11.102;2023-08-20T12:32:02;100637.50;;;37.05;39.74
27805;BME280;15183;51.350;11.102;2023-08-20T12:34:30;100644.59;;;37.10;39.64
27805;BME280;15183;51.350;11.102;2023-08-20T12:36:57;100623.69;;;37.05;39.26
27805;BME280;15183;51.350;11.102;2023-08-20T12:39:23;100642.69;;;37.21;38.77
27805;BME280;15183;51.350;11.102;2023-08-20T12:41:50;100650.56;;;37.22;39.09
27805;BME280;15183;51.350;11.102;2023-08-20T12:44:16;100647.81;;;37.22;38.60
27805;BME280;15183;51.350;11.102;2023-08-20T12:46:43;100630.84;;;37.24;39.21
27805;BME280;15183;51.350;11.102;2023-08-20T12:49:09;100616.63;;;37.15;38.78
27805;BME280;15183;51.350;11.102;2023-08-20T12:51:36;100630.06;;;37.27;38.30
27805;BME280;15183;51.350;11.102;2023-08-20T12:54:04;100634.41;;;37.21;38.48
27805;BME280;15183;51.350;11.102;2023-08-20T12:56:33;100635.59;;;37.20;38.62
27805;BME280;15183;51.350;11.102;2023-08-20T12:58:59;100638.31;;;37.13;38.54
27805;BME280;15183;51.350;11.102;2023-08-20T13:01:26;100638.28;;;37.02;39.19
27805;BME280;15183;51.350;11.102;2023-08-20T13:03:52;100629.88;;;36.84;39.41